Terminal Aerodrome Forecast
Issued by NWS

Home | Current Version | Previous Version | Graphics & Text | Print | Product List | Glossary On
Versions: 1 2 3 4 5 6 7 8 9 10 11 12 13 14 15 16 17
000
FTUS43 KGRB 301731
TAFCWA
TAF
KCWA 301731Z 3018/0118 06012G18KT P6SM BKN050
     FM302000 06010G17KT P6SM BKN030
     FM302300 06007G18KT P6SM BKN025
     FM010300 06006KT P6SM VCSH BKN017
     FM010900 06006KT P6SM OVC014 PROB30 0109/0115 4SM -SHRA
     FM011500 04007KT P6SM OVC022=

USA.gov is the U.S. government's official web portal to all federal, state and local government web resources and services.